WetterOnline ( http://www.wetteronline.de )

Wetter aktuell Seehausen (Altmark)

Aktuelles Wetter: Seehausen (23m)

6-stündlich | Neueste Meldungen
Ortszeit Temperatur Wetter
Sa, 22.09. 2:00 10.5° C wolkenlos
Fr, 21.09. 20:00 13.5° C bedeckt
Fr, 21.09. 14:00 26.4° C bedeckt
Fr, 21.09. 8:00 18.9° C wolkig
Fr, 21.09. 2:00 18.9° C bedeckt
Do, 20.09. 20:00 22.3° C wolkig
Do, 20.09. 14:00 26.5° C leicht bewölkt
Do, 20.09. 8:00 17.1° C leicht bewölkt
Ortszeit Temperatur Wetter
Sa, 22.09. 3:00 10.2° C bewölkt
Sa, 22.09. 2:50 10.2° C bewölkt
Sa, 22.09. 2:40 10.1° C bewölkt
Sa, 22.09. 2:30 10.2° C leicht bewölkt
Sa, 22.09. 2:20 10.2° C leicht bewölkt
Sa, 22.09. 2:10 10.3° C wolkenlos
Sa, 22.09. 2:00 10.5° C wolkenlos
Sa, 22.09. 1:30 10.5° C wolkenlos
Sa, 22.09. 1:00 10.7° C wolkenlos
Sa, 22.09. 0:30 10.8° C leicht bewölkt
Sa, 22.09. 0:00 11.6° C leicht bewölkt
Fr, 21.09. 23:30 12.3° C fast wolkenlos
Ortszeit Relative Feuchte Sichtweite
Sa, 22.09. 2:00 70% 70 km
Fr, 21.09. 20:00 84% 55 km
Fr, 21.09. 14:00 42% 35 km
Fr, 21.09. 8:00 58% 35 km
Fr, 21.09. 2:00 60% 30 km
Do, 20.09. 20:00 52% 35 km
Do, 20.09. 14:00 41% 40 km
Do, 20.09. 8:00 74% 30 km
Ortszeit Relative Feuchte Sichtweite
Sa, 22.09. 3:00 74% 70 km
Sa, 22.09. 2:50 74% -
Sa, 22.09. 2:40 74% -
Sa, 22.09. 2:30 72% 70 km
Sa, 22.09. 2:20 72% -
Sa, 22.09. 2:10 71% -
Sa, 22.09. 2:00 70% 70 km
Sa, 22.09. 1:30 69% 70 km
Sa, 22.09. 1:00 66% 70 km
Sa, 22.09. 0:30 65% 70 km
Sa, 22.09. 0:00 62% 70 km
Fr, 21.09. 23:30 61% 70 km
Ortszeit Niederschlagsmenge Niederschlagsart
Sa, 22.09. 2:00 0.0 l/m2 in 6 Std. -
Fr, 21.09. 20:00 4 l/m2 in 12 Std. Regen
Fr, 21.09. 14:00 0.0 l/m2 in 6 Std. -
Fr, 21.09. 8:00 0.0 l/m2 in 12 Std. -
Fr, 21.09. 2:00 0.0 l/m2 in 6 Std. -
Do, 20.09. 20:00 0.0 l/m2 in 12 Std. -
Do, 20.09. 14:00 0.0 l/m2 in 6 Std. -
Do, 20.09. 8:00 0.0 l/m2 in 12 Std. -
Ortszeit Niederschlagsmenge Niederschlagsart
Sa, 22.09. 3:00 0.0 l/m2 in 1 Std. -
Sa, 22.09. 2:50 keine Meldung -
Sa, 22.09. 2:40 keine Meldung -
Sa, 22.09. 2:30 0.0 l/m2 in 1 Std. -
Sa, 22.09. 2:20 keine Meldung -
Sa, 22.09. 2:10 keine Meldung -
Sa, 22.09. 2:00 0.0 l/m2 in 1 Std. -
Sa, 22.09. 1:30 0.0 l/m2 in 1 Std. -
Sa, 22.09. 1:00 0.0 l/m2 in 1 Std. -
Sa, 22.09. 0:30 0.0 l/m2 in 1 Std. -
Sa, 22.09. 0:00 0.0 l/m2 in 1 Std. -
Fr, 21.09. 23:30 0.0 l/m2 in 1 Std. -
Ortszeit Stärke Spitze Richtung
km/h Bft. km/h Grad Sektor
Sa, 22.09. 2:00 17 3 46 240° SW
Fr, 21.09. 20:00 14 3 76 240° SW
Fr, 21.09. 14:00 18 3 58 200° S
Fr, 21.09. 8:00 13 3 24 160° S
Fr, 21.09. 2:00 13 3 20 160° S
Do, 20.09. 20:00 7 2 41 240° SW
Do, 20.09. 14:00 20 4 37 200° S
Do, 20.09. 8:00 9 2 17 200° S
Ortszeit Stärke Spitze Richtung
km/h Bft. km/h Grad Sektor
Sa, 22.09. 3:00 14 3 32 220° SW
Sa, 22.09. 2:50 14 3 - 220° SW
Sa, 22.09. 2:40 14 3 - 220° SW
Sa, 22.09. 2:30 15 3 31 220° SW
Sa, 22.09. 2:20 15 3 - 220° SW
Sa, 22.09. 2:10 15 3 - 230° SW
Sa, 22.09. 2:00 17 3 30 240° SW
Sa, 22.09. 1:30 14 3 29 230° SW
Sa, 22.09. 1:00 14 3 32 240° SW
Sa, 22.09. 0:30 14 3 32 250° W
Sa, 22.09. 0:00 14 3 40 260° W
Fr, 21.09. 23:30 28 4 41 260° W
Ortszeit Untergrenze Bedeckung Gattung
total tief tief mittel hoch
Sa, 22.09. 2:00 - 0/8 0/8 - - -
Fr, 21.09. 20:00 4500 m 8/8 8/8 - - -
Fr, 21.09. 14:00 3900 m 8/8 8/8 - - -
Fr, 21.09. 8:00 8400 m 8/8 0/8 - - -
Fr, 21.09. 2:00 6900 m 8/8 8/8 - - -
Do, 20.09. 20:00 10500 m 7/8 0/8 - - -
Do, 20.09. 14:00 1800 m 2/8 2/8 - - -
Do, 20.09. 8:00 2400 m 2/8 1/8 - - -
Ortszeit Bedeckungsgrad in Achtel und Wolkenuntergrenze
Sa, 22.09. 3:00 4(3900m) 7(4800m) 7(5100m)
Sa, 22.09. 2:50 4(3900m) 7(4800m) 7(5100m)
Sa, 22.09. 2:40 4(4500m) 6(5100m) 7(6000m)
Sa, 22.09. 2:30 3(6000m) 6(6000m)
Sa, 22.09. 2:20 3(6000m)
Sa, 22.09. 2:10 keine Wolken
Sa, 22.09. 2:00 keine Wolken
Sa, 22.09. 1:30 keine Wolken
Sa, 22.09. 1:00 keine Wolken
Sa, 22.09. 0:30 1(1500m)
Sa, 22.09. 0:00 3(1800m) 4(2100m) 9
Fr, 21.09. 23:30 1(1800m)
Ortszeit Luftdruck NN (hPa) Tendenz (hPa in 3 Std.)
Sa, 22.09. 2:00 1012 + 1,4
Fr, 21.09. 20:00 1008 + 1,8
Fr, 21.09. 14:00 1002 - 2,2
Fr, 21.09. 8:00 1006 - 2,6
Fr, 21.09. 2:00 1011 - 1,9
Do, 20.09. 20:00 1014 - 0,9
Do, 20.09. 14:00 1016 - 1,6
Do, 20.09. 8:00 1018 + 0,7
Ortszeit Luftdruck NN (hPa) Tendenz (hPa in 3 Std.)
Sa, 22.09. 3:00 1012 + 0,7
Sa, 22.09. 2:50 1012 keine Meldung
Sa, 22.09. 2:40 1012 keine Meldung
Sa, 22.09. 2:30 1012 + 0,8
Sa, 22.09. 2:20 1012 keine Meldung
Sa, 22.09. 2:10 1012 keine Meldung
Sa, 22.09. 2:00 1012 + 1,4
Sa, 22.09. 1:30 1012 + 1,4
Sa, 22.09. 1:00 1012 + 2,0
Sa, 22.09. 0:30 1012 + 2,3
Sa, 22.09. 0:00 1012 + 2,5
Fr, 21.09. 23:30 1011 + 2,9
Ortszeit Schneehöhe (cm)
Sa, 22.09. 2:00 -
Fr, 21.09. 20:00 -
Fr, 21.09. 14:00 -
Fr, 21.09. 8:00 -
Fr, 21.09. 2:00 -
Do, 20.09. 20:00 -
Do, 20.09. 14:00 -
Do, 20.09. 8:00 -
Ortszeit Schneehöhe (cm)
Sa, 22.09. 3:00 -
Sa, 22.09. 2:50 -
Sa, 22.09. 2:40 -
Sa, 22.09. 2:30 -
Sa, 22.09. 2:20 -
Sa, 22.09. 2:10 -
Sa, 22.09. 2:00 -
Sa, 22.09. 1:30 -
Sa, 22.09. 1:00 -
Sa, 22.09. 0:30 -
Sa, 22.09. 0:00 -
Fr, 21.09. 23:30 -
Link zu dieser Seite / Seite empfehlen

Das Wetter in ...